createdAt,value
2023-01-01T00:01:40.268Z,72.20
2023-01-01T00:04:15.036Z,71.90
2023-01-01T00:06:46.572Z,63.20
2023-01-01T00:09:35.566Z,75.90
2023-01-01T00:12:07.526Z,66.40
2023-01-01T00:14:39.431Z,63.30
2023-01-01T00:17:10.630Z,51.20
2023-01-01T00:19:41.742Z,48.10
2023-01-01T00:22:44.073Z,44.30
2023-01-01T00:25:04.312Z,50.60
2023-01-01T00:30:05.280Z,53.20
2023-01-01T00:35:06.361Z,47.10
2023-01-01T00:37:41.846Z,50.00
2023-01-01T00:40:16.627Z,57.60
2023-01-01T00:42:49.409Z,50.30
2023-01-01T00:45:22.584Z,68.90
2023-01-01T00:47:55.634Z,56.60
2023-01-01T00:50:26.680Z,78.40
2023-01-01T00:52:57.761Z,62.80
2023-01-01T00:55:29.946Z,66.10
2023-01-01T00:58:01.089Z,57.00
2023-01-01T01:00:32.348Z,54.00
2023-01-01T01:03:03.648Z,54.70
2023-01-01T01:05:37.166Z,57.90
2023-01-01T01:08:08.509Z,53.00
2023-01-01T01:10:39.549Z,58.40
2023-01-01T01:13:10.510Z,61.90
2023-01-01T01:15:42.064Z,46.70
2023-01-01T01:18:13.211Z,59.80
2023-01-01T01:20:52.907Z,54.50
2023-01-01T01:23:24.204Z,61.10
2023-01-01T01:25:55.251Z,54.80
2023-01-01T01:28:26.226Z,53.60
2023-01-01T01:31:00.379Z,52.90
2023-01-01T01:33:31.359Z,57.10
2023-01-01T01:36:03.075Z,52.60
2023-01-01T01:38:34.483Z,58.10
2023-01-01T01:46:39.593Z,66.90
2023-01-01T01:49:17.731Z,58.20
2023-01-01T01:52:00.748Z,55.20
2023-01-01T01:54:32.449Z,61.50
2023-01-01T01:57:06.522Z,57.60
2023-01-01T01:59:42.074Z,57.70
2023-01-01T02:02:21.241Z,59.00
2023-01-01T02:04:53.583Z,67.70
2023-01-01T02:07:26.257Z,74.60
2023-01-01T02:09:57.677Z,65.20
2023-01-01T02:12:30.266Z,64.70
2023-01-01T02:15:01.738Z,64.30
2023-01-01T02:17:41.015Z,56.50
2023-01-01T02:20:34.567Z,63.20
2023-01-01T02:23:47.141Z,61.20
2023-01-01T02:26:42.590Z,56.30
2023-01-01T02:29:37.323Z,58.60
2023-01-01T02:32:12.009Z,61.00
2023-01-01T02:34:46.272Z,59.60
2023-01-01T02:37:23.806Z,52.80
2023-01-01T02:39:58.773Z,47.80
2023-01-01T02:42:32.597Z,58.90
2023-01-01T02:45:03.559Z,60.10
2023-01-01T02:47:34.551Z,54.70
2023-01-01T02:50:12.959Z,50.80
2023-01-01T02:53:00.301Z,58.60
2023-01-01T02:55:40.596Z,57.10
2023-01-01T02:58:36.412Z,61.20
2023-01-01T03:01:14.396Z,53.60
2023-01-01T03:03:55.993Z,46.20
2023-01-01T03:06:39.044Z,59.00
2023-01-01T03:09:19.623Z,47.80
2023-01-01T03:11:57.970Z,48.70
2023-01-01T03:14:39.120Z,46.90
2023-01-01T03:17:16.651Z,44.60
2023-01-01T03:22:20.137Z,38.90
2023-01-01T03:24:55.028Z,40.50
2023-01-01T03:27:30.398Z,34.90
2023-01-01T03:30:08.312Z,45.20
2023-01-01T03:32:58.731Z,41.80
2023-01-01T03:35:33.789Z,47.30
2023-01-01T03:38:09.275Z,44.70
2023-01-01T03:40:41.921Z,64.00
2023-01-01T03:43:18.355Z,45.70
2023-01-01T03:45:52.212Z,38.40
2023-01-01T03:48:23.242Z,39.40
2023-01-01T03:51:04.203Z,52.60
2023-01-01T03:53:42.567Z,54.40
2023-01-01T03:56:21.024Z,40.10
2023-01-01T03:59:01.808Z,39.30
2023-01-01T04:01:38.859Z,41.50
2023-01-01T04:04:11.576Z,32.20
2023-01-01T04:06:42.529Z,28.60
2023-01-01T04:12:04.394Z,23.70
2023-01-01T04:14:37.710Z,21.80
2023-01-01T04:17:10.810Z,20.90
2023-01-01T04:19:42.067Z,18.90
2023-01-01T04:24:42.527Z,20.60
2023-01-01T04:27:13.884Z,21.20
2023-01-01T04:29:45.177Z,22.00
2023-01-01T04:32:16.470Z,20.10
2023-01-01T04:34:48.807Z,22.20
2023-01-01T04:37:20.334Z,23.80
2023-01-01T04:39:51.645Z,20.90
2023-01-01T04:42:23.272Z,22.90
2023-01-01T04:44:54.274Z,19.60
2023-01-01T04:47:26.959Z,20.40
2023-01-01T04:49:58.097Z,19.10
2023-01-01T04:52:29.510Z,14.80
2023-01-01T04:55:00.382Z,19.80
2023-01-01T04:57:33.315Z,17.40
2023-01-01T05:00:04.743Z,15.60
2023-01-01T05:02:35.944Z,14.80
2023-01-01T05:05:08.078Z,14.50
2023-01-01T05:07:43.091Z,14.60
2023-01-01T05:12:43.751Z,16.60
2023-01-01T05:15:15.215Z,13.10
2023-01-01T05:17:46.165Z,16.10
2023-01-01T05:20:17.576Z,11.90
2023-01-01T05:22:50.496Z,16.40
2023-01-01T05:25:21.865Z,12.30
2023-01-01T05:27:54.201Z,11.40
2023-01-01T05:30:25.809Z,13.60
2023-01-01T05:32:57.528Z,12.70
2023-01-01T05:35:28.829Z,17.70
2023-01-01T05:40:29.999Z,15.30
2023-01-01T05:43:10.268Z,14.00
2023-01-01T05:45:41.241Z,12.50
2023-01-01T05:48:12.686Z,14.60
2023-01-01T05:53:13.581Z,18.30
2023-01-01T05:55:44.931Z,15.80
2023-01-01T05:58:16.185Z,16.90
2023-01-01T06:00:47.198Z,15.30
2023-01-01T06:03:19.110Z,12.80
2023-01-01T06:05:50.290Z,14.50
2023-01-01T06:08:21.218Z,15.70
2023-01-01T06:10:58.619Z,12.40
2023-01-01T06:13:29.747Z,13.00
2023-01-01T06:16:02.952Z,14.50
2023-01-01T06:18:35.934Z,15.70
2023-01-01T06:21:12.292Z,11.80
2023-01-01T06:23:43.933Z,15.10
2023-01-01T06:26:17.644Z,10.40
2023-01-01T06:28:49.370Z,14.90
2023-01-01T06:31:21.711Z,16.30
2023-01-01T06:33:53.507Z,10.90
2023-01-01T06:36:26.360Z,14.30
2023-01-01T06:39:00.252Z,15.60
2023-01-01T06:41:32.000Z,16.20
2023-01-01T06:44:03.560Z,13.30
2023-01-01T06:46:36.736Z,10.10
2023-01-01T06:49:11.292Z,12.50
2023-01-01T06:51:44.602Z,10.90
2023-01-01T06:54:15.692Z,14.00
2023-01-01T06:56:46.750Z,12.70
2023-01-01T06:59:18.632Z,16.20
2023-01-01T07:01:49.793Z,17.40
2023-01-01T07:06:50.562Z,18.20
2023-01-01T07:09:21.709Z,15.00
2023-01-01T07:11:52.526Z,13.40
2023-01-01T07:14:23.694Z,13.20
2023-01-01T07:16:54.623Z,10.00
2023-01-01T07:19:25.586Z,10.90
2023-01-01T07:21:57.128Z,11.10
2023-01-01T07:24:28.322Z,13.70
2023-01-01T07:26:59.818Z,15.30
2023-01-01T07:29:30.785Z,14.40
2023-01-01T07:32:02.258Z,24.40
2023-01-01T07:34:33.569Z,18.60
2023-01-01T07:37:04.582Z,11.90
2023-01-01T07:39:35.904Z,21.80
2023-01-01T07:42:10.931Z,18.60
2023-01-01T07:44:42.731Z,16.10
2023-01-01T07:47:22.620Z,21.40
2023-01-01T07:49:54.340Z,16.60
2023-01-01T07:52:25.794Z,14.30
2023-01-01T07:54:56.908Z,10.70
2023-01-01T07:57:28.028Z,11.20
2023-01-01T07:59:59.047Z,14.10
2023-01-01T08:02:30.110Z,21.50
2023-01-01T08:05:01.375Z,17.50
2023-01-01T08:10:02.161Z,24.10
2023-01-01T08:15:03.002Z,16.00
2023-01-01T08:17:34.077Z,23.50
2023-01-01T08:22:34.806Z,21.90
2023-01-01T08:27:35.571Z,17.10
2023-01-01T08:30:07.942Z,17.30
2023-01-01T08:32:39.194Z,13.60
2023-01-01T08:35:11.626Z,20.30
2023-01-01T08:37:42.539Z,21.60
2023-01-01T08:40:15.698Z,23.50
2023-01-01T08:42:46.581Z,24.80
2023-01-01T08:45:18.097Z,27.00
2023-01-01T08:50:18.688Z,25.60
2023-01-01T08:52:50.037Z,26.30
2023-01-01T08:55:21.030Z,22.80
2023-01-01T09:00:22.115Z,23.40
2023-01-01T09:02:53.316Z,17.70
2023-01-01T09:05:24.434Z,13.80
2023-01-01T09:07:55.385Z,18.90
2023-01-01T09:10:26.407Z,20.00
2023-01-01T09:15:27.246Z,22.60
2023-01-01T09:20:27.813Z,19.40
2023-01-01T09:25:37.072Z,29.60
2023-01-01T09:28:10.012Z,53.90
2023-01-01T09:30:41.330Z,44.50
2023-01-01T09:33:12.335Z,31.30
2023-01-01T09:38:15.910Z,22.90
2023-01-01T09:41:00.244Z,20.20
2023-01-01T09:43:41.148Z,18.70
2023-01-01T09:46:12.834Z,20.70
2023-01-01T09:48:51.512Z,22.20
2023-01-01T09:51:23.663Z,19.00
2023-01-01T09:54:00.827Z,50.20
2023-01-01T09:56:36.207Z,30.50
2023-01-01T09:59:09.546Z,23.80
2023-01-01T10:01:48.714Z,16.30
2023-01-01T10:04:34.473Z,20.90
2023-01-01T10:07:15.535Z,18.20
2023-01-01T10:09:51.874Z,15.40
2023-01-01T10:12:29.315Z,15.20
2023-01-01T10:17:38.288Z,24.00
2023-01-01T10:20:19.798Z,29.30
2023-01-01T10:22:55.385Z,33.30
2023-01-01T10:25:29.294Z,35.90
2023-01-01T10:28:05.486Z,37.80
2023-01-01T10:30:36.563Z,27.00
2023-01-01T10:33:14.198Z,26.90
2023-01-01T10:35:48.916Z,27.50
2023-01-01T10:38:25.591Z,18.60
2023-01-01T10:41:02.162Z,21.00
2023-01-01T10:43:33.242Z,19.70
2023-01-01T10:46:05.562Z,18.50
2023-01-01T10:48:37.215Z,17.70
2023-01-01T10:51:16.231Z,15.50
2023-01-01T10:53:52.962Z,17.10
2023-01-01T10:56:25.416Z,16.80
2023-01-01T10:58:58.792Z,14.30
2023-01-01T11:01:32.086Z,10.90
2023-01-01T11:04:05.083Z,11.60
2023-01-01T11:06:37.519Z,12.80
2023-01-01T11:09:23.214Z,13.70
2023-01-01T11:12:05.624Z,12.80
2023-01-01T11:14:43.533Z,12.80
2023-01-01T11:17:21.408Z,13.90
2023-01-01T11:20:01.345Z,16.20
2023-01-01T11:22:41.743Z,20.40
2023-01-01T11:25:30.378Z,6.70
2023-01-01T11:28:21.097Z,7.20
2023-01-01T11:31:04.188Z,6.80
2023-01-01T11:36:08.403Z,7.60
2023-01-01T11:38:39.493Z,7.60
2023-01-01T11:41:10.634Z,8.20
2023-01-01T11:43:47.755Z,5.60
2023-01-01T11:46:24.954Z,7.80
2023-01-01T11:48:56.456Z,9.10
2023-01-01T11:51:36.176Z,7.40
2023-01-01T11:54:32.842Z,6.90
2023-01-01T11:57:12.918Z,8.50
2023-01-01T11:59:50.897Z,8.60
2023-01-01T12:02:35.440Z,6.70
2023-01-01T12:05:17.739Z,9.70
2023-01-01T12:07:50.023Z,7.90
2023-01-01T12:10:25.685Z,8.90
2023-01-01T12:13:02.916Z,7.70
2023-01-01T12:18:17.352Z,9.80
2023-01-01T12:20:56.220Z,6.70
2023-01-01T12:23:27.573Z,5.90
2023-01-01T12:26:10.626Z,8.80
2023-01-01T12:28:56.432Z,7.10
2023-01-01T12:31:35.259Z,5.70
2023-01-01T12:34:18.002Z,7.50
2023-01-01T12:36:58.331Z,7.60
2023-01-01T12:40:06.184Z,8.20
2023-01-01T12:42:53.316Z,9.40
2023-01-01T12:45:42.595Z,7.30
2023-01-01T12:48:31.855Z,8.60
2023-01-01T12:51:16.395Z,6.30
2023-01-01T12:53:58.266Z,8.30
2023-01-01T12:56:35.203Z,9.60
2023-01-01T12:59:11.986Z,13.60
2023-01-01T13:01:43.851Z,10.20
2023-01-01T13:04:18.598Z,12.30
2023-01-01T13:06:52.254Z,11.90
2023-01-01T13:09:26.324Z,9.30
2023-01-01T13:12:01.266Z,21.70
2023-01-01T13:14:42.321Z,12.00
2023-01-01T13:17:22.876Z,7.80
2023-01-01T13:19:59.116Z,8.50
2023-01-01T13:22:43.248Z,9.90
2023-01-01T13:25:25.095Z,10.40
2023-01-01T13:28:14.716Z,7.90
2023-01-01T13:30:55.383Z,10.80
2023-01-01T13:33:29.694Z,10.00
2023-01-01T13:36:33.757Z,8.30
2023-01-01T13:39:04.844Z,8.50
2023-01-01T13:41:44.235Z,12.20
2023-01-01T13:44:22.619Z,9.20
2023-01-01T13:47:12.710Z,9.70
2023-01-01T13:50:04.869Z,10.60
2023-01-01T13:52:49.606Z,8.30
2023-01-01T13:55:59.137Z,8.80
2023-01-01T13:59:00.909Z,9.10
2023-01-01T14:01:59.772Z,7.70
2023-01-01T14:04:40.988Z,8.50
2023-01-01T14:10:26.032Z,6.60
2023-01-01T14:13:03.254Z,8.30
2023-01-01T14:15:36.503Z,7.20
2023-01-01T14:18:13.695Z,8.00
2023-01-01T14:23:24.601Z,8.50
2023-01-01T14:25:55.682Z,10.20
2023-01-01T14:28:28.989Z,6.10
2023-01-01T14:31:10.285Z,9.80
2023-01-01T14:33:43.172Z,8.10
2023-01-01T14:36:22.087Z,11.90
2023-01-01T14:38:54.648Z,8.90
2023-01-01T14:41:29.519Z,17.80
2023-01-01T14:44:07.391Z,13.00
2023-01-01T14:46:45.107Z,12.10
2023-01-01T14:49:20.609Z,12.30
2023-01-01T14:51:58.102Z,10.80
2023-01-01T14:54:35.001Z,10.90
2023-01-01T14:57:10.779Z,9.40
2023-01-01T14:59:48.891Z,10.20
2023-01-01T15:02:23.459Z,9.90
2023-01-01T15:04:55.131Z,10.70
2023-01-01T15:07:27.633Z,10.20
2023-01-01T15:10:03.335Z,13.10
2023-01-01T15:12:37.545Z,12.10
2023-01-01T15:15:45.673Z,11.40
2023-01-01T15:18:40.062Z,20.00
2023-01-01T15:21:18.014Z,17.90
2023-01-01T15:23:56.170Z,14.40
2023-01-01T15:26:34.118Z,17.20
2023-01-01T15:29:08.716Z,17.50
2023-01-01T15:31:42.642Z,14.60
2023-01-01T15:34:24.923Z,16.40
2023-01-01T15:36:58.028Z,16.60
2023-01-01T15:39:32.165Z,14.80
2023-01-01T15:42:03.398Z,16.00
2023-01-01T15:44:36.974Z,20.20
2023-01-01T15:47:15.231Z,17.40
2023-01-01T15:49:46.305Z,15.30
2023-01-01T15:54:50.141Z,20.10
2023-01-01T15:57:23.820Z,24.40
2023-01-01T15:59:55.763Z,133.10
2023-01-01T16:02:32.627Z,301.30
2023-01-01T16:05:03.821Z,89.80
2023-01-01T16:07:35.119Z,23.60
2023-01-01T16:10:14.326Z,18.10
2023-01-01T16:12:45.597Z,17.50
2023-01-01T16:15:18.516Z,18.40
2023-01-01T16:17:50.045Z,23.50
2023-01-01T16:20:23.011Z,30.20
2023-01-01T16:22:54.569Z,26.10
2023-01-01T16:25:27.059Z,20.80
2023-01-01T16:27:57.974Z,21.60
2023-01-01T16:30:29.321Z,20.90
2023-01-01T16:33:00.680Z,18.00
2023-01-01T16:38:01.729Z,43.40
2023-01-01T16:40:37.579Z,32.20
2023-01-01T16:43:16.319Z,27.00
2023-01-01T16:45:47.910Z,50.50
2023-01-01T16:48:19.125Z,29.50
2023-01-01T16:50:53.283Z,40.80
2023-01-01T16:53:24.430Z,43.60
2023-01-01T16:55:56.521Z,45.10
2023-01-01T17:01:18.842Z,37.20
2023-01-01T17:06:20.102Z,50.10
2023-01-01T17:08:52.944Z,70.70
2023-01-01T17:11:25.103Z,48.00
2023-01-01T17:13:56.615Z,37.70
2023-01-01T17:16:34.383Z,62.90
2023-01-01T17:19:15.163Z,65.80
2023-01-01T17:21:49.487Z,31.00
2023-01-01T17:24:22.164Z,29.90
2023-01-01T17:26:55.411Z,36.70
2023-01-01T17:29:27.125Z,41.50
2023-01-01T17:31:58.125Z,37.10
2023-01-01T17:34:29.186Z,37.40
2023-01-01T17:37:00.165Z,40.40
2023-01-01T17:39:31.352Z,53.60
2023-01-01T17:42:02.582Z,46.20
2023-01-01T17:47:03.108Z,41.80
2023-01-01T17:52:03.785Z,33.90
2023-01-01T17:54:35.468Z,33.70
2023-01-01T17:57:06.793Z,31.20
2023-01-01T17:59:38.145Z,29.60
2023-01-01T18:02:14.213Z,28.00
2023-01-01T18:04:46.451Z,28.40
2023-01-01T18:07:17.928Z,27.90
2023-01-01T18:09:49.229Z,30.20
2023-01-01T18:12:20.426Z,28.00
2023-01-01T18:14:51.682Z,26.90
2023-01-01T18:17:22.906Z,28.20
2023-01-01T18:19:54.044Z,31.20
2023-01-01T18:24:54.949Z,27.10
2023-01-01T18:27:26.278Z,31.40
2023-01-01T18:29:57.258Z,29.60
2023-01-01T18:32:28.346Z,33.60
2023-01-01T18:34:59.216Z,32.40
2023-01-01T18:40:01.293Z,29.90
2023-01-01T18:42:45.282Z,51.20
2023-01-01T18:45:21.880Z,32.00
2023-01-01T18:47:53.273Z,29.50
2023-01-01T18:50:27.821Z,70.00
2023-01-01T18:53:04.050Z,47.00
2023-01-01T18:55:35.243Z,36.00
2023-01-01T18:58:17.597Z,35.20
2023-01-01T19:00:49.564Z,39.50
2023-01-01T19:03:28.232Z,34.50
2023-01-01T19:06:01.664Z,46.10
2023-01-01T19:08:32.900Z,43.20
2023-01-01T19:13:37.520Z,48.30
2023-01-01T19:16:27.677Z,41.70
2023-01-01T19:19:11.958Z,41.80
2023-01-01T19:21:51.018Z,42.90
2023-01-01T19:24:26.453Z,44.70
2023-01-01T19:27:01.225Z,44.50
2023-01-01T19:29:32.882Z,43.60
2023-01-01T19:32:04.365Z,52.00
2023-01-01T19:34:36.985Z,53.50
2023-01-01T19:37:08.984Z,47.20
2023-01-01T19:39:39.861Z,49.20
2023-01-01T19:42:11.651Z,49.80
2023-01-01T19:44:42.815Z,65.60
2023-01-01T19:47:13.946Z,65.20
2023-01-01T19:49:48.215Z,56.90
2023-01-01T19:52:21.904Z,41.30
2023-01-01T19:54:52.832Z,52.10
2023-01-01T19:57:24.101Z,53.20
2023-01-01T20:02:45.416Z,53.00
2023-01-01T20:05:15.926Z,41.30
2023-01-01T20:10:17.069Z,40.30
2023-01-01T20:12:48.536Z,40.90
2023-01-01T20:15:19.807Z,45.30
2023-01-01T20:20:20.819Z,47.10
2023-01-01T20:22:51.905Z,41.50
2023-01-01T20:25:23.009Z,69.90
2023-01-01T20:28:11.341Z,31.50
2023-01-01T20:30:42.610Z,26.60
2023-01-01T20:33:13.745Z,35.20
2023-01-01T20:36:02.513Z,36.10
2023-01-01T20:38:39.888Z,38.60
2023-01-01T20:41:26.626Z,39.90
2023-01-01T20:43:59.803Z,35.80
2023-01-01T20:46:31.734Z,31.00
2023-01-01T20:49:02.931Z,32.80
2023-01-01T20:51:34.027Z,30.60
2023-01-01T20:54:05.407Z,30.80
2023-01-01T20:59:24.595Z,26.70
2023-01-01T21:01:57.406Z,26.80
2023-01-01T21:04:28.773Z,29.30
2023-01-01T21:09:29.491Z,33.00
2023-01-01T21:12:02.249Z,36.90
2023-01-01T21:14:33.663Z,78.40
2023-01-01T21:17:16.251Z,145.30
2023-01-01T21:19:47.584Z,37.80
2023-01-01T21:22:18.821Z,28.80
2023-01-01T21:24:54.368Z,25.90
2023-01-01T21:27:34.572Z,33.10
2023-01-01T21:30:12.117Z,42.40
2023-01-01T21:35:23.313Z,30.20
2023-01-01T21:37:58.577Z,32.70
2023-01-01T21:40:41.503Z,33.90
2023-01-01T21:43:25.367Z,51.80
2023-01-01T21:45:58.024Z,37.60
2023-01-01T21:48:32.607Z,35.30
2023-01-01T21:51:04.086Z,33.40
2023-01-01T21:53:37.077Z,37.10
2023-01-01T21:56:27.110Z,36.20
2023-01-01T21:59:18.890Z,36.30
2023-01-01T22:01:51.602Z,35.40
2023-01-01T22:04:25.058Z,34.40
2023-01-01T22:07:00.183Z,35.50
2023-01-01T22:09:35.933Z,40.00
2023-01-01T22:12:24.451Z,31.80
2023-01-01T22:14:58.460Z,29.70
2023-01-01T22:17:36.760Z,37.90
2023-01-01T22:20:21.245Z,38.20
2023-01-01T22:22:52.973Z,34.70
2023-01-01T22:25:28.786Z,43.50
2023-01-01T22:28:06.343Z,35.90
2023-01-01T22:30:41.142Z,34.20
2023-01-01T22:33:18.200Z,49.70
2023-01-01T22:35:50.039Z,58.10
2023-01-01T22:38:22.619Z,37.50
2023-01-01T22:40:54.413Z,48.40
2023-01-01T22:43:31.952Z,51.80
2023-01-01T22:46:12.280Z,49.30
2023-01-01T22:48:43.407Z,58.10
2023-01-01T22:51:18.716Z,37.60
2023-01-01T22:53:49.796Z,42.30
2023-01-01T22:56:21.538Z,45.40
2023-01-01T22:58:57.324Z,47.00
2023-01-01T23:01:28.878Z,51.40
2023-01-01T23:06:29.502Z,41.00
2023-01-01T23:09:00.563Z,48.80
2023-01-01T23:11:31.752Z,46.30
2023-01-01T23:14:20.418Z,42.90
2023-01-01T23:16:51.758Z,34.80
2023-01-01T23:21:52.529Z,31.60
2023-01-01T23:24:25.491Z,26.40
2023-01-01T23:26:57.731Z,29.10
2023-01-01T23:29:32.448Z,32.60
2023-01-01T23:32:04.504Z,26.00
2023-01-01T23:34:36.040Z,24.90
2023-01-01T23:39:36.707Z,21.40
2023-01-01T23:42:07.856Z,23.00
2023-01-01T23:44:39.007Z,22.20
2023-01-01T23:47:11.118Z,22.70
2023-01-01T23:49:43.234Z,21.70
2023-01-01T23:52:14.406Z,24.90
2023-01-01T23:57:15.171Z,27.90
2023-01-01T23:59:46.252Z,23.00
